sensor_id;sensor_type;location;lat;lon;timestamp;P1;durP1;ratioP1;P2;durP2;ratioP2
45065;SDS011;30830;53.704;10.004;2022-12-22T00:00:14;35.10;;;20.15;;
45065;SDS011;30830;53.704;10.004;2022-12-22T00:02:58;32.20;;;18.33;;
45065;SDS011;30830;53.704;10.004;2022-12-22T00:05:42;33.28;;;18.08;;
45065;SDS011;30830;53.704;10.004;2022-12-22T00:08:26;29.02;;;19.02;;
45065;SDS011;30830;53.704;10.004;2022-12-22T00:11:10;29.23;;;18.45;;
45065;SDS011;30830;53.704;10.004;2022-12-22T00:13:55;32.65;;;16.92;;
45065;SDS011;30830;53.704;10.004;2022-12-22T00:16:39;34.75;;;17.75;;
45065;SDS011;30830;53.704;10.004;2022-12-22T00:19:23;31.85;;;18.15;;
45065;SDS011;30830;53.704;10.004;2022-12-22T00:22:18;34.10;;;19.08;;
45065;SDS011;30830;53.704;10.004;2022-12-22T00:25:04;34.35;;;19.13;;
45065;SDS011;30830;53.704;10.004;2022-12-22T00:27:48;30.23;;;17.92;;
45065;SDS011;30830;53.704;10.004;2022-12-22T00:30:32;34.53;;;19.08;;
45065;SDS011;30830;53.704;10.004;2022-12-22T00:33:17;34.58;;;17.73;;
45065;SDS011;30830;53.704;10.004;2022-12-22T00:36:03;28.65;;;17.58;;
45065;SDS011;30830;53.704;10.004;2022-12-22T00:38:49;34.78;;;17.40;;
45065;SDS011;30830;53.704;10.004;2022-12-22T00:41:33;28.65;;;16.65;;
45065;SDS011;30830;53.704;10.004;2022-12-22T00:44:17;27.75;;;15.80;;
45065;SDS011;30830;53.704;10.004;2022-12-22T00:47:01;22.25;;;14.60;;
45065;SDS011;30830;53.704;10.004;2022-12-22T00:49:46;32.05;;;16.25;;
45065;SDS011;30830;53.704;10.004;2022-12-22T00:52:31;25.00;;;15.05;;
45065;SDS011;30830;53.704;10.004;2022-12-22T00:55:18;24.83;;;14.85;;
45065;SDS011;30830;53.704;10.004;2022-12-22T00:58:05;23.63;;;15.75;;
45065;SDS011;30830;53.704;10.004;2022-12-22T01:00:59;21.27;;;15.07;;
45065;SDS011;30830;53.704;10.004;2022-12-22T01:03:44;21.15;;;13.65;;
45065;SDS011;30830;53.704;10.004;2022-12-22T01:06:29;22.23;;;13.77;;
45065;SDS011;30830;53.704;10.004;2022-12-22T01:09:14;20.17;;;13.75;;
45065;SDS011;30830;53.704;10.004;2022-12-22T01:12:00;24.05;;;13.85;;
45065;SDS011;30830;53.704;10.004;2022-12-22T01:14:45;22.10;;;15.55;;
45065;SDS011;30830;53.704;10.004;2022-12-22T01:17:29;19.88;;;12.70;;
45065;SDS011;30830;53.704;10.004;2022-12-22T01:20:13;24.25;;;14.90;;
45065;SDS011;30830;53.704;10.004;2022-12-22T01:22:57;19.25;;;13.35;;
45065;SDS011;30830;53.704;10.004;2022-12-22T01:25:41;18.20;;;14.10;;
45065;SDS011;30830;53.704;10.004;2022-12-22T01:28:26;19.98;;;13.98;;
45065;SDS011;30830;53.704;10.004;2022-12-22T01:31:31;21.63;;;14.10;;
45065;SDS011;30830;53.704;10.004;2022-12-22T01:34:15;20.33;;;13.27;;
45065;SDS011;30830;53.704;10.004;2022-12-22T01:37:00;24.17;;;15.88;;
45065;SDS011;30830;53.704;10.004;2022-12-22T01:39:43;23.10;;;14.90;;
45065;SDS011;30830;53.704;10.004;2022-12-22T01:42:32;25.98;;;16.55;;
45065;SDS011;30830;53.704;10.004;2022-12-22T01:45:22;21.52;;;14.60;;
45065;SDS011;30830;53.704;10.004;2022-12-22T01:48:23;20.58;;;14.82;;
45065;SDS011;30830;53.704;10.004;2022-12-22T01:51:11;23.33;;;14.27;;
45065;SDS011;30830;53.704;10.004;2022-12-22T01:54:00;22.83;;;16.80;;
45065;SDS011;30830;53.704;10.004;2022-12-22T01:56:45;25.45;;;15.20;;
45065;SDS011;30830;53.704;10.004;2022-12-22T01:59:37;23.42;;;15.35;;
45065;SDS011;30830;53.704;10.004;2022-12-22T02:02:21;20.55;;;15.27;;
45065;SDS011;30830;53.704;10.004;2022-12-22T02:05:07;23.52;;;15.93;;
45065;SDS011;30830;53.704;10.004;2022-12-22T02:14:15;26.05;;;17.17;;
45065;SDS011;30830;53.704;10.004;2022-12-22T02:17:33;31.00;;;17.67;;
45065;SDS011;30830;53.704;10.004;2022-12-22T02:20:42;24.10;;;16.05;;
45065;SDS011;30830;53.704;10.004;2022-12-22T02:26:29;26.60;;;17.30;;
45065;SDS011;30830;53.704;10.004;2022-12-22T02:29:21;24.90;;;16.50;;
45065;SDS011;30830;53.704;10.004;2022-12-22T02:32:12;25.33;;;16.63;;
45065;SDS011;30830;53.704;10.004;2022-12-22T02:34:56;25.67;;;16.55;;
45065;SDS011;30830;53.704;10.004;2022-12-22T02:40:43;21.77;;;15.95;;
45065;SDS011;30830;53.704;10.004;2022-12-22T02:50:18;21.85;;;14.68;;
45065;SDS011;30830;53.704;10.004;2022-12-22T02:53:12;22.17;;;14.65;;
45065;SDS011;30830;53.704;10.004;2022-12-22T02:56:00;22.83;;;15.60;;
45065;SDS011;30830;53.704;10.004;2022-12-22T02:58:48;19.52;;;15.13;;
45065;SDS011;30830;53.704;10.004;2022-12-22T03:01:32;23.70;;;15.25;;
45065;SDS011;30830;53.704;10.004;2022-12-22T03:04:16;21.35;;;14.98;;
45065;SDS011;30830;53.704;10.004;2022-12-22T03:07:00;20.55;;;13.90;;
45065;SDS011;30830;53.704;10.004;2022-12-22T03:09:44;27.27;;;14.20;;
45065;SDS011;30830;53.704;10.004;2022-12-22T03:12:28;21.30;;;14.50;;
45065;SDS011;30830;53.704;10.004;2022-12-22T03:15:13;18.65;;;13.30;;
45065;SDS011;30830;53.704;10.004;2022-12-22T03:18:04;21.35;;;13.70;;
45065;SDS011;30830;53.704;10.004;2022-12-22T03:20:49;19.27;;;13.95;;
45065;SDS011;30830;53.704;10.004;2022-12-22T03:23:34;17.52;;;13.02;;
45065;SDS011;30830;53.704;10.004;2022-12-22T03:26:19;16.17;;;12.32;;
45065;SDS011;30830;53.704;10.004;2022-12-22T03:28:44;15.48;;;11.65;;
45065;SDS011;30830;53.704;10.004;2022-12-22T03:31:10;16.38;;;10.75;;
45065;SDS011;30830;53.704;10.004;2022-12-22T03:33:36;16.02;;;11.95;;
45065;SDS011;30830;53.704;10.004;2022-12-22T03:36:02;16.80;;;10.82;;
45065;SDS011;30830;53.704;10.004;2022-12-22T03:38:29;16.08;;;11.35;;
45065;SDS011;30830;53.704;10.004;2022-12-22T03:40:55;14.15;;;10.95;;
45065;SDS011;30830;53.704;10.004;2022-12-22T03:43:20;14.13;;;11.43;;
45065;SDS011;30830;53.704;10.004;2022-12-22T03:46:05;16.50;;;11.10;;
45065;SDS011;30830;53.704;10.004;2022-12-22T03:48:49;15.38;;;10.93;;
45065;SDS011;30830;53.704;10.004;2022-12-22T03:51:42;16.25;;;11.15;;
45065;SDS011;30830;53.704;10.004;2022-12-22T03:54:11;13.77;;;10.80;;
45065;SDS011;30830;53.704;10.004;2022-12-22T03:56:38;17.67;;;11.30;;
45065;SDS011;30830;53.704;10.004;2022-12-22T03:59:04;14.57;;;10.75;;
45065;SDS011;30830;53.704;10.004;2022-12-22T04:01:30;14.90;;;11.10;;
45065;SDS011;30830;53.704;10.004;2022-12-22T04:03:57;13.98;;;10.57;;
45065;SDS011;30830;53.704;10.004;2022-12-22T04:06:23;14.05;;;10.25;;
45065;SDS011;30830;53.704;10.004;2022-12-22T04:08:48;12.32;;;10.80;;
45065;SDS011;30830;53.704;10.004;2022-12-22T04:11:14;15.32;;;9.75;;
45065;SDS011;30830;53.704;10.004;2022-12-22T04:13:59;14.75;;;10.60;;
45065;SDS011;30830;53.704;10.004;2022-12-22T04:16:25;14.70;;;10.65;;
45065;SDS011;30830;53.704;10.004;2022-12-22T04:18:50;16.05;;;10.77;;
45065;SDS011;30830;53.704;10.004;2022-12-22T04:21:16;13.88;;;10.40;;
45065;SDS011;30830;53.704;10.004;2022-12-22T04:23:42;16.02;;;12.27;;
45065;SDS011;30830;53.704;10.004;2022-12-22T04:26:07;18.50;;;12.05;;
45065;SDS011;30830;53.704;10.004;2022-12-22T04:28:33;15.73;;;11.45;;
45065;SDS011;30830;53.704;10.004;2022-12-22T04:30:59;18.45;;;11.98;;
45065;SDS011;30830;53.704;10.004;2022-12-22T04:33:24;15.57;;;11.32;;
45065;SDS011;30830;53.704;10.004;2022-12-22T04:35:50;19.52;;;12.75;;
45065;SDS011;30830;53.704;10.004;2022-12-22T04:38:15;14.57;;;10.93;;
45065;SDS011;30830;53.704;10.004;2022-12-22T04:40:41;18.70;;;11.90;;
45065;SDS011;30830;53.704;10.004;2022-12-22T04:43:07;16.23;;;11.35;;
45065;SDS011;30830;53.704;10.004;2022-12-22T04:45:32;17.77;;;11.30;;
45065;SDS011;30830;53.704;10.004;2022-12-22T04:47:58;16.25;;;12.27;;
45065;SDS011;30830;53.704;10.004;2022-12-22T04:50:23;14.77;;;12.57;;
45065;SDS011;30830;53.704;10.004;2022-12-22T04:52:49;15.18;;;11.73;;
45065;SDS011;30830;53.704;10.004;2022-12-22T04:55:15;16.42;;;11.15;;
45065;SDS011;30830;53.704;10.004;2022-12-22T04:57:40;15.85;;;11.73;;
45065;SDS011;30830;53.704;10.004;2022-12-22T05:00:06;16.63;;;12.00;;
45065;SDS011;30830;53.704;10.004;2022-12-22T05:02:32;14.52;;;10.63;;
45065;SDS011;30830;53.704;10.004;2022-12-22T05:04:58;19.38;;;11.98;;
45065;SDS011;30830;53.704;10.004;2022-12-22T05:07:23;14.73;;;11.95;;
45065;SDS011;30830;53.704;10.004;2022-12-22T05:09:49;17.42;;;12.43;;
45065;SDS011;30830;53.704;10.004;2022-12-22T05:12:14;14.85;;;10.80;;
45065;SDS011;30830;53.704;10.004;2022-12-22T05:14:58;14.70;;;10.98;;
45065;SDS011;30830;53.704;10.004;2022-12-22T05:17:25;15.10;;;11.25;;
45065;SDS011;30830;53.704;10.004;2022-12-22T05:19:50;14.13;;;11.55;;
45065;SDS011;30830;53.704;10.004;2022-12-22T05:22:16;13.63;;;10.93;;
45065;SDS011;30830;53.704;10.004;2022-12-22T05:24:41;17.45;;;11.55;;
45065;SDS011;30830;53.704;10.004;2022-12-22T05:27:07;17.40;;;11.57;;
45065;SDS011;30830;53.704;10.004;2022-12-22T05:29:34;15.40;;;10.95;;
45065;SDS011;30830;53.704;10.004;2022-12-22T05:31:59;14.73;;;11.38;;
45065;SDS011;30830;53.704;10.004;2022-12-22T05:34:25;21.80;;;11.88;;
45065;SDS011;30830;53.704;10.004;2022-12-22T05:36:51;18.38;;;12.07;;
45065;SDS011;30830;53.704;10.004;2022-12-22T05:39:16;15.55;;;11.95;;
45065;SDS011;30830;53.704;10.004;2022-12-22T05:41:43;15.90;;;11.07;;
45065;SDS011;30830;53.704;10.004;2022-12-22T05:44:08;18.40;;;11.55;;
45065;SDS011;30830;53.704;10.004;2022-12-22T05:46:34;18.40;;;12.45;;
45065;SDS011;30830;53.704;10.004;2022-12-22T05:48:59;14.57;;;11.82;;
45065;SDS011;30830;53.704;10.004;2022-12-22T05:51:25;17.40;;;11.80;;
45065;SDS011;30830;53.704;10.004;2022-12-22T05:53:50;18.73;;;11.85;;
45065;SDS011;30830;53.704;10.004;2022-12-22T05:56:16;16.25;;;11.57;;
45065;SDS011;30830;53.704;10.004;2022-12-22T05:58:41;17.40;;;11.45;;
45065;SDS011;30830;53.704;10.004;2022-12-22T06:01:07;19.88;;;13.02;;
45065;SDS011;30830;53.704;10.004;2022-12-22T06:03:33;19.23;;;12.23;;
45065;SDS011;30830;53.704;10.004;2022-12-22T06:05:58;19.40;;;13.55;;
45065;SDS011;30830;53.704;10.004;2022-12-22T06:08:24;18.92;;;12.40;;
45065;SDS011;30830;53.704;10.004;2022-12-22T06:10:52;18.90;;;11.98;;
45065;SDS011;30830;53.704;10.004;2022-12-22T06:13:18;18.23;;;13.25;;
45065;SDS011;30830;53.704;10.004;2022-12-22T06:15:44;23.88;;;13.00;;
45065;SDS011;30830;53.704;10.004;2022-12-22T06:18:09;17.73;;;12.90;;
45065;SDS011;30830;53.704;10.004;2022-12-22T06:20:35;19.77;;;13.70;;
45065;SDS011;30830;53.704;10.004;2022-12-22T06:23:01;23.45;;;14.60;;
45065;SDS011;30830;53.704;10.004;2022-12-22T06:25:27;24.10;;;15.00;;
45065;SDS011;30830;53.704;10.004;2022-12-22T06:27:52;25.58;;;15.35;;
45065;SDS011;30830;53.704;10.004;2022-12-22T06:30:18;24.05;;;14.80;;
45065;SDS011;30830;53.704;10.004;2022-12-22T06:32:44;23.65;;;14.20;;
45065;SDS011;30830;53.704;10.004;2022-12-22T06:35:09;27.83;;;14.43;;
45065;SDS011;30830;53.704;10.004;2022-12-22T06:37:35;28.58;;;16.48;;
45065;SDS011;30830;53.704;10.004;2022-12-22T06:40:01;23.85;;;15.90;;
45065;SDS011;30830;53.704;10.004;2022-12-22T06:42:26;28.83;;;17.15;;
45065;SDS011;30830;53.704;10.004;2022-12-22T06:45:14;57.90;;;33.25;;
45065;SDS011;30830;53.704;10.004;2022-12-22T06:47:39;56.35;;;37.38;;
45065;SDS011;30830;53.704;10.004;2022-12-22T06:50:05;46.50;;;29.05;;
45065;SDS011;30830;53.704;10.004;2022-12-22T06:52:31;45.55;;;27.17;;
45065;SDS011;30830;53.704;10.004;2022-12-22T06:54:56;36.83;;;21.38;;
45065;SDS011;30830;53.704;10.004;2022-12-22T06:57:22;30.90;;;18.58;;
45065;SDS011;30830;53.704;10.004;2022-12-22T06:59:47;26.45;;;17.73;;
45065;SDS011;30830;53.704;10.004;2022-12-22T07:02:13;28.40;;;19.30;;
45065;SDS011;30830;53.704;10.004;2022-12-22T07:04:38;30.35;;;18.58;;
45065;SDS011;30830;53.704;10.004;2022-12-22T07:07:04;29.80;;;16.73;;
45065;SDS011;30830;53.704;10.004;2022-12-22T07:09:30;24.08;;;17.15;;
45065;SDS011;30830;53.704;10.004;2022-12-22T07:11:55;25.85;;;17.20;;
45065;SDS011;30830;53.704;10.004;2022-12-22T07:14:21;27.17;;;17.00;;
45065;SDS011;30830;53.704;10.004;2022-12-22T07:16:46;26.63;;;16.20;;
45065;SDS011;30830;53.704;10.004;2022-12-22T07:19:12;26.17;;;16.15;;
45065;SDS011;30830;53.704;10.004;2022-12-22T07:21:38;26.80;;;16.02;;
45065;SDS011;30830;53.704;10.004;2022-12-22T07:24:03;24.95;;;15.80;;
45065;SDS011;30830;53.704;10.004;2022-12-22T07:26:29;24.52;;;16.63;;
45065;SDS011;30830;53.704;10.004;2022-12-22T07:28:55;29.33;;;17.83;;
45065;SDS011;30830;53.704;10.004;2022-12-22T07:31:21;26.05;;;17.27;;
45065;SDS011;30830;53.704;10.004;2022-12-22T07:33:46;24.48;;;15.98;;
45065;SDS011;30830;53.704;10.004;2022-12-22T07:36:16;24.10;;;16.35;;
45065;SDS011;30830;53.704;10.004;2022-12-22T07:38:44;26.33;;;16.95;;
45065;SDS011;30830;53.704;10.004;2022-12-22T07:41:12;24.70;;;15.48;;
45065;SDS011;30830;53.704;10.004;2022-12-22T07:46:24;28.20;;;16.27;;
45065;SDS011;30830;53.704;10.004;2022-12-22T07:48:51;27.95;;;16.55;;
45065;SDS011;30830;53.704;10.004;2022-12-22T07:51:36;26.20;;;15.50;;
45065;SDS011;30830;53.704;10.004;2022-12-22T07:54:04;23.42;;;16.23;;
45065;SDS011;30830;53.704;10.004;2022-12-22T07:56:30;25.83;;;16.35;;
45065;SDS011;30830;53.704;10.004;2022-12-22T07:58:55;26.52;;;17.08;;
45065;SDS011;30830;53.704;10.004;2022-12-22T08:01:21;26.67;;;17.17;;
45065;SDS011;30830;53.704;10.004;2022-12-22T08:03:47;23.60;;;16.15;;
45065;SDS011;30830;53.704;10.004;2022-12-22T08:06:12;24.50;;;15.98;;
45065;SDS011;30830;53.704;10.004;2022-12-22T08:08:38;26.85;;;16.50;;
45065;SDS011;30830;53.704;10.004;2022-12-22T08:11:04;35.42;;;20.90;;
45065;SDS011;30830;53.704;10.004;2022-12-22T08:13:29;25.48;;;17.35;;
45065;SDS011;30830;53.704;10.004;2022-12-22T08:16:00;27.02;;;16.98;;
45065;SDS011;30830;53.704;10.004;2022-12-22T08:18:28;24.52;;;16.00;;
45065;SDS011;30830;53.704;10.004;2022-12-22T08:20:54;28.70;;;17.00;;
45065;SDS011;30830;53.704;10.004;2022-12-22T08:23:20;27.42;;;17.88;;
45065;SDS011;30830;53.704;10.004;2022-12-22T08:25:46;27.20;;;16.73;;
45065;SDS011;30830;53.704;10.004;2022-12-22T08:28:14;25.05;;;15.73;;
45065;SDS011;30830;53.704;10.004;2022-12-22T08:30:41;33.13;;;19.05;;
45065;SDS011;30830;53.704;10.004;2022-12-22T08:33:08;41.75;;;22.55;;
45065;SDS011;30830;53.704;10.004;2022-12-22T08:35:33;36.38;;;20.88;;
45065;SDS011;30830;53.704;10.004;2022-12-22T08:37:59;27.23;;;17.10;;
45065;SDS011;30830;53.704;10.004;2022-12-22T08:40:27;23.17;;;15.60;;
45065;SDS011;30830;53.704;10.004;2022-12-22T08:42:59;23.48;;;15.48;;
45065;SDS011;30830;53.704;10.004;2022-12-22T08:45:28;22.65;;;15.30;;
45065;SDS011;30830;53.704;10.004;2022-12-22T08:47:53;21.77;;;15.20;;
45065;SDS011;30830;53.704;10.004;2022-12-22T08:50:19;21.25;;;14.38;;
45065;SDS011;30830;53.704;10.004;2022-12-22T08:52:44;19.65;;;14.07;;
45065;SDS011;30830;53.704;10.004;2022-12-22T08:55:10;19.25;;;12.57;;
45065;SDS011;30830;53.704;10.004;2022-12-22T08:57:35;16.95;;;12.35;;
45065;SDS011;30830;53.704;10.004;2022-12-22T09:00:03;18.65;;;11.90;;
45065;SDS011;30830;53.704;10.004;2022-12-22T09:02:30;14.52;;;10.60;;
45065;SDS011;30830;53.704;10.004;2022-12-22T09:04:56;13.98;;;9.88;;
45065;SDS011;30830;53.704;10.004;2022-12-22T09:07:21;14.77;;;10.20;;
45065;SDS011;30830;53.704;10.004;2022-12-22T09:09:47;13.32;;;9.50;;
45065;SDS011;30830;53.704;10.004;2022-12-22T09:12:12;14.57;;;9.40;;
45065;SDS011;30830;53.704;10.004;2022-12-22T09:14:38;11.73;;;8.73;;
45065;SDS011;30830;53.704;10.004;2022-12-22T09:17:03;12.57;;;8.98;;
45065;SDS011;30830;53.704;10.004;2022-12-22T09:19:29;12.07;;;9.00;;
45065;SDS011;30830;53.704;10.004;2022-12-22T09:21:55;11.60;;;8.13;;
45065;SDS011;30830;53.704;10.004;2022-12-22T09:24:20;16.33;;;9.20;;
45065;SDS011;30830;53.704;10.004;2022-12-22T09:26:46;10.48;;;7.13;;
45065;SDS011;30830;53.704;10.004;2022-12-22T09:29:12;11.00;;;8.52;;
45065;SDS011;30830;53.704;10.004;2022-12-22T09:31:39;12.45;;;8.40;;
45065;SDS011;30830;53.704;10.004;2022-12-22T09:34:05;12.88;;;8.77;;
45065;SDS011;30830;53.704;10.004;2022-12-22T09:36:31;12.23;;;9.10;;
45065;SDS011;30830;53.704;10.004;2022-12-22T09:38:57;14.05;;;9.48;;
45065;SDS011;30830;53.704;10.004;2022-12-22T09:41:35;14.02;;;9.32;;
45065;SDS011;30830;53.704;10.004;2022-12-22T09:44:26;15.93;;;10.30;;
45065;SDS011;30830;53.704;10.004;2022-12-22T09:46:56;15.05;;;9.50;;
45065;SDS011;30830;53.704;10.004;2022-12-22T09:49:24;14.98;;;9.95;;
45065;SDS011;30830;53.704;10.004;2022-12-22T09:51:55;16.10;;;10.40;;
45065;SDS011;30830;53.704;10.004;2022-12-22T09:54:23;13.55;;;9.57;;
45065;SDS011;30830;53.704;10.004;2022-12-22T09:56:50;15.98;;;10.57;;
45065;SDS011;30830;53.704;10.004;2022-12-22T09:59:16;14.90;;;9.38;;
45065;SDS011;30830;53.704;10.004;2022-12-22T10:04:59;16.08;;;10.40;;
45065;SDS011;30830;53.704;10.004;2022-12-22T10:07:36;16.73;;;11.70;;
45065;SDS011;30830;53.704;10.004;2022-12-22T10:10:13;21.88;;;13.10;;
45065;SDS011;30830;53.704;10.004;2022-12-22T10:12:48;19.40;;;12.30;;
45065;SDS011;30830;53.704;10.004;2022-12-22T10:15:19;19.13;;;13.63;;
45065;SDS011;30830;53.704;10.004;2022-12-22T10:17:44;22.48;;;13.60;;
45065;SDS011;30830;53.704;10.004;2022-12-22T10:22:49;21.48;;;12.88;;
45065;SDS011;30830;53.704;10.004;2022-12-22T10:25:33;21.13;;;13.90;;
45065;SDS011;30830;53.704;10.004;2022-12-22T10:28:02;20.35;;;12.55;;
45065;SDS011;30830;53.704;10.004;2022-12-22T10:30:33;26.02;;;14.82;;
45065;SDS011;30830;53.704;10.004;2022-12-22T10:35:45;22.25;;;14.10;;
45065;SDS011;30830;53.704;10.004;2022-12-22T10:40:58;22.90;;;14.48;;
45065;SDS011;30830;53.704;10.004;2022-12-22T10:43:30;22.92;;;15.05;;
45065;SDS011;30830;53.704;10.004;2022-12-22T10:46:01;23.08;;;14.88;;
45065;SDS011;30830;53.704;10.004;2022-12-22T10:48:35;24.10;;;15.55;;
45065;SDS011;30830;53.704;10.004;2022-12-22T10:51:03;22.67;;;14.48;;
45065;SDS011;30830;53.704;10.004;2022-12-22T10:53:50;27.58;;;16.48;;
45065;SDS011;30830;53.704;10.004;2022-12-22T10:56:20;24.75;;;15.88;;
45065;SDS011;30830;53.704;10.004;2022-12-22T10:58:48;23.08;;;15.30;;
45065;SDS011;30830;53.704;10.004;2022-12-22T11:01:27;26.92;;;16.05;;
45065;SDS011;30830;53.704;10.004;2022-12-22T11:03:54;25.20;;;15.55;;
45065;SDS011;30830;53.704;10.004;2022-12-22T11:06:20;27.45;;;17.00;;
45065;SDS011;30830;53.704;10.004;2022-12-22T11:08:46;24.20;;;16.42;;
45065;SDS011;30830;53.704;10.004;2022-12-22T11:22:03;23.67;;;15.02;;
45065;SDS011;30830;53.704;10.004;2022-12-22T11:27:43;25.85;;;16.73;;
45065;SDS011;30830;53.704;10.004;2022-12-22T11:33:42;26.38;;;15.25;;
45065;SDS011;30830;53.704;10.004;2022-12-22T11:36:21;23.63;;;14.85;;
45065;SDS011;30830;53.704;10.004;2022-12-22T11:39:13;25.42;;;14.77;;
45065;SDS011;30830;53.704;10.004;2022-12-22T11:41:48;25.17;;;15.48;;
45065;SDS011;30830;53.704;10.004;2022-12-22T11:49:46;24.63;;;15.13;;
45065;SDS011;30830;53.704;10.004;2022-12-22T11:55:27;23.45;;;14.27;;
45065;SDS011;30830;53.704;10.004;2022-12-22T12:06:27;14.60;;;11.15;;
45065;SDS011;30830;53.704;10.004;2022-12-22T12:11:39;16.73;;;11.38;;
45065;SDS011;30830;53.704;10.004;2022-12-22T12:14:30;18.83;;;11.88;;
45065;SDS011;30830;53.704;10.004;2022-12-22T12:22:31;15.57;;;10.50;;
45065;SDS011;30830;53.704;10.004;2022-12-22T12:25:15;16.27;;;11.25;;
45065;SDS011;30830;53.704;10.004;2022-12-22T12:30:19;13.70;;;10.47;;
45065;SDS011;30830;53.704;10.004;2022-12-22T12:32:54;14.98;;;10.82;;
45065;SDS011;30830;53.704;10.004;2022-12-22T12:38:00;18.15;;;11.45;;
45065;SDS011;30830;53.704;10.004;2022-12-22T12:40:34;18.58;;;11.25;;
45065;SDS011;30830;53.704;10.004;2022-12-22T12:43:15;18.48;;;12.25;;
45065;SDS011;30830;53.704;10.004;2022-12-22T12:45:44;18.00;;;11.38;;
45065;SDS011;30830;53.704;10.004;2022-12-22T12:50:50;15.93;;;10.50;;
45065;SDS011;30830;53.704;10.004;2022-12-22T12:53:17;19.27;;;10.98;;
45065;SDS011;30830;53.704;10.004;2022-12-22T13:00:58;16.45;;;10.80;;
45065;SDS011;30830;53.704;10.004;2022-12-22T13:05:54;17.98;;;10.82;;
45065;SDS011;30830;53.704;10.004;2022-12-22T13:23:27;18.27;;;8.48;;
45065;SDS011;30830;53.704;10.004;2022-12-22T13:26:01;12.57;;;7.90;;
45065;SDS011;30830;53.704;10.004;2022-12-22T13:28:31;14.27;;;8.60;;
45065;SDS011;30830;53.704;10.004;2022-12-22T13:30:59;14.50;;;7.85;;
45065;SDS011;30830;53.704;10.004;2022-12-22T13:33:34;15.85;;;8.32;;
45065;SDS011;30830;53.704;10.004;2022-12-22T13:36:03;15.13;;;8.43;;
45065;SDS011;30830;53.704;10.004;2022-12-22T13:38:33;17.98;;;8.00;;
45065;SDS011;30830;53.704;10.004;2022-12-22T13:41:19;18.63;;;8.73;;
45065;SDS011;30830;53.704;10.004;2022-12-22T13:43:47;16.60;;;9.07;;
45065;SDS011;30830;53.704;10.004;2022-12-22T13:46:18;17.60;;;8.13;;
45065;SDS011;30830;53.704;10.004;2022-12-22T13:48:47;22.75;;;10.57;;
45065;SDS011;30830;53.704;10.004;2022-12-22T13:51:25;26.92;;;16.95;;
45065;SDS011;30830;53.704;10.004;2022-12-22T13:53:54;23.17;;;15.60;;
45065;SDS011;30830;53.704;10.004;2022-12-22T13:56:26;13.50;;;8.70;;
45065;SDS011;30830;53.704;10.004;2022-12-22T13:58:59;17.50;;;10.05;;
45065;SDS011;30830;53.704;10.004;2022-12-22T14:01:26;18.42;;;9.13;;
45065;SDS011;30830;53.704;10.004;2022-12-22T14:03:54;18.55;;;11.45;;
45065;SDS011;30830;53.704;10.004;2022-12-22T14:06:34;13.93;;;8.70;;
45065;SDS011;30830;53.704;10.004;2022-12-22T14:11:48;16.77;;;10.07;;
45065;SDS011;30830;53.704;10.004;2022-12-22T14:14:28;18.25;;;8.32;;
45065;SDS011;30830;53.704;10.004;2022-12-22T14:17:02;20.67;;;11.07;;
45065;SDS011;30830;53.704;10.004;2022-12-22T14:19:29;15.38;;;10.23;;
45065;SDS011;30830;53.704;10.004;2022-12-22T14:22:01;16.38;;;8.63;;
45065;SDS011;30830;53.704;10.004;2022-12-22T14:24:45;16.52;;;9.30;;
45065;SDS011;30830;53.704;10.004;2022-12-22T14:30:17;14.50;;;9.63;;
45065;SDS011;30830;53.704;10.004;2022-12-22T14:32:49;19.23;;;9.70;;
45065;SDS011;30830;53.704;10.004;2022-12-22T14:37:49;14.45;;;8.82;;
45065;SDS011;30830;53.704;10.004;2022-12-22T14:40:32;20.42;;;9.20;;
45065;SDS011;30830;53.704;10.004;2022-12-22T14:43:08;21.08;;;11.55;;
45065;SDS011;30830;53.704;10.004;2022-12-22T14:45:49;21.73;;;10.55;;
45065;SDS011;30830;53.704;10.004;2022-12-22T14:51:08;16.75;;;9.30;;
45065;SDS011;30830;53.704;10.004;2022-12-22T14:56:14;15.63;;;9.43;;
45065;SDS011;30830;53.704;10.004;2022-12-22T14:58:42;15.82;;;9.40;;
45065;SDS011;30830;53.704;10.004;2022-12-22T15:03:43;14.60;;;8.77;;
45065;SDS011;30830;53.704;10.004;2022-12-22T15:11:36;11.88;;;7.25;;
45065;SDS011;30830;53.704;10.004;2022-12-22T15:14:14;10.10;;;6.38;;
45065;SDS011;30830;53.704;10.004;2022-12-22T15:16:43;15.07;;;8.27;;
45065;SDS011;30830;53.704;10.004;2022-12-22T15:19:11;15.77;;;8.63;;
45065;SDS011;30830;53.704;10.004;2022-12-22T15:21:41;12.45;;;8.00;;
45065;SDS011;30830;53.704;10.004;2022-12-22T15:24:10;16.45;;;8.40;;
45065;SDS011;30830;53.704;10.004;2022-12-22T15:26:36;19.35;;;8.45;;
45065;SDS011;30830;53.704;10.004;2022-12-22T15:29:02;14.98;;;8.60;;
45065;SDS011;30830;53.704;10.004;2022-12-22T15:31:28;12.70;;;7.20;;
45065;SDS011;30830;53.704;10.004;2022-12-22T15:33:54;13.18;;;7.55;;
45065;SDS011;30830;53.704;10.004;2022-12-22T15:36:24;15.23;;;8.38;;
45065;SDS011;30830;53.704;10.004;2022-12-22T15:38:49;11.10;;;6.55;;
45065;SDS011;30830;53.704;10.004;2022-12-22T15:41:15;16.48;;;7.43;;
45065;SDS011;30830;53.704;10.004;2022-12-22T15:43:40;15.75;;;7.25;;
45065;SDS011;30830;53.704;10.004;2022-12-22T15:46:06;11.35;;;7.20;;
45065;SDS011;30830;53.704;10.004;2022-12-22T15:48:35;12.63;;;7.93;;
45065;SDS011;30830;53.704;10.004;2022-12-22T15:51:02;14.63;;;6.88;;
45065;SDS011;30830;53.704;10.004;2022-12-22T15:53:30;15.40;;;6.78;;
45065;SDS011;30830;53.704;10.004;2022-12-22T15:55:57;9.35;;;6.20;;
45065;SDS011;30830;53.704;10.004;2022-12-22T15:58:24;8.70;;;5.75;;
45065;SDS011;30830;53.704;10.004;2022-12-22T16:00:54;9.70;;;6.13;;
45065;SDS011;30830;53.704;10.004;2022-12-22T16:03:20;20.15;;;9.55;;
45065;SDS011;30830;53.704;10.004;2022-12-22T16:05:46;30.35;;;19.02;;
45065;SDS011;30830;53.704;10.004;2022-12-22T16:08:12;36.08;;;18.42;;
45065;SDS011;30830;53.704;10.004;2022-12-22T16:10:41;29.30;;;16.80;;
45065;SDS011;30830;53.704;10.004;2022-12-22T16:13:08;20.80;;;11.05;;
45065;SDS011;30830;53.704;10.004;2022-12-22T16:15:37;13.15;;;9.00;;
45065;SDS011;30830;53.704;10.004;2022-12-22T16:18:03;13.15;;;7.97;;
45065;SDS011;30830;53.704;10.004;2022-12-22T16:20:30;13.45;;;8.48;;
45065;SDS011;30830;53.704;10.004;2022-12-22T16:23:00;10.35;;;7.72;;
45065;SDS011;30830;53.704;10.004;2022-12-22T16:25:34;12.65;;;8.13;;
45065;SDS011;30830;53.704;10.004;2022-12-22T16:28:02;13.73;;;7.32;;
45065;SDS011;30830;53.704;10.004;2022-12-22T16:30:31;11.48;;;7.38;;
45065;SDS011;30830;53.704;10.004;2022-12-22T16:32:57;13.27;;;7.55;;
45065;SDS011;30830;53.704;10.004;2022-12-22T16:35:24;13.88;;;7.95;;
45065;SDS011;30830;53.704;10.004;2022-12-22T16:37:53;11.32;;;6.10;;
45065;SDS011;30830;53.704;10.004;2022-12-22T16:40:20;10.02;;;6.00;;
45065;SDS011;30830;53.704;10.004;2022-12-22T16:43:07;13.05;;;7.60;;
45065;SDS011;30830;53.704;10.004;2022-12-22T16:45:37;13.10;;;6.93;;
45065;SDS011;30830;53.704;10.004;2022-12-22T16:48:09;18.77;;;8.75;;